Time;durP1;ratioP1;P1;durP2;ratioP2;P2;SDS_P1;SDS_P2;PMS_P1;PMS_P2;Temp;Humidity;BMP_temperature;BMP_pressure;BME280_temperature;BME280_humidity;BME280_pressure;Samples;Min_cycle;Max_cycle;Signal;HPM_P1;HPM_P2
2021/09/16 00:01:34;;;;;;;4.70;3.97;;;;;;;;;;5031588;28;20774;-68
2021/09/16 00:04:00;;;;;;;16.10;5.47;;;;;;;;;;5033530;28;20423;-68
2021/09/16 00:06:26;;;;;;;7.43;4.03;;;;;;;;;;5035020;28;20962;-68
2021/09/16 00:08:52;;;;;;;5.93;3.60;;;;;;;;;;5037919;28;20410;-68
2021/09/16 00:11:19;;;;;;;9.03;4.00;;;;;;;;;;5034335;28;20512;-68
2021/09/16 00:13:45;;;;;;;6.47;4.20;;;;;;;;;;5018075;28;20502;-68
2021/09/16 00:16:11;;;;;;;5.47;4.10;;;;;;;;;;5019009;28;20432;-68
2021/09/16 00:18:37;;;;;;;5.80;4.17;;;;;;;;;;5037962;28;20453;-68
2021/09/16 00:21:04;;;;;;;5.03;3.23;;;;;;;;;;5035486;28;20427;-68
2021/09/16 00:23:30;;;;;;;3.93;3.23;;;;;;;;;;5037336;28;20505;-67
2021/09/16 00:25:56;;;;;;;4.13;3.33;;;;;;;;;;5037523;28;20395;-68
2021/09/16 00:28:22;;;;;;;8.67;4.77;;;;;;;;;;5021939;28;20440;-68
2021/09/16 00:30:48;;;;;;;7.23;3.37;;;;;;;;;;5017895;28;20477;-67
2021/09/16 00:33:14;;;;;;;4.73;3.30;;;;;;;;;;5035087;28;20442;-67
2021/09/16 00:35:40;;;;;;;4.60;3.20;;;;;;;;;;5037522;28;20485;-68
2021/09/16 00:38:06;;;;;;;5.27;3.53;;;;;;;;;;5036220;28;20434;-67
2021/09/16 00:40:32;;;;;;;3.33;2.60;;;;;;;;;;5037254;28;20810;-67
2021/09/16 00:42:58;;;;;;;7.70;3.27;;;;;;;;;;5036414;28;20809;-67
2021/09/16 00:45:24;;;;;;;5.07;3.93;;;;;;;;;;5037406;28;20399;-67
2021/09/16 00:47:51;;;;;;;4.63;3.23;;;;;;;;;;5023042;28;20424;-67
2021/09/16 00:50:22;;;;;;;5.40;2.87;;;;;;;;;;5016909;28;20412;-67
2021/09/16 00:52:49;;;;;;;5.73;3.57;;;;;;;;;;5019594;28;20550;-66
2021/09/16 00:55:16;;;;;;;5.50;3.10;;;;;;;;;;5029071;28;20465;-68
2021/09/16 00:57:49;;;;;;;6.90;3.50;;;;;;;;;;5024428;28;20435;-68
2021/09/16 01:00:15;;;;;;;5.60;3.30;;;;;;;;;;5016871;28;20439;-68
2021/09/16 01:02:41;;;;;;;3.90;2.77;;;;;;;;;;5027737;28;20462;-68
2021/09/16 01:05:07;;;;;;;4.83;3.03;;;;;;;;;;5036692;28;20425;-68
2021/09/16 01:07:36;;;;;;;5.93;2.97;;;;;;;;;;5036243;28;20438;-68
2021/09/16 01:10:03;;;;;;;4.23;3.53;;;;;;;;;;5037000;28;20410;-68
2021/09/16 01:12:29;;;;;;;4.73;3.20;;;;;;;;;;5035909;28;20454;-68
2021/09/16 01:14:55;;;;;;;4.87;3.80;;;;;;;;;;5037103;28;20399;-67
2021/09/16 01:17:21;;;;;;;3.70;2.67;;;;;;;;;;5035091;28;20469;-68
2021/09/16 01:19:47;;;;;;;4.30;3.20;;;;;;;;;;5036637;28;20458;-67
2021/09/16 01:22:19;;;;;;;6.10;3.60;;;;;;;;;;5035528;28;20843;-67
2021/09/16 01:24:45;;;;;;;6.07;3.90;;;;;;;;;;5036638;28;20387;-69
2021/09/16 01:27:11;;;;;;;4.57;3.27;;;;;;;;;;5035951;28;20457;-68
2021/09/16 01:29:37;;;;;;;7.50;3.40;;;;;;;;;;5030753;28;20435;-67
2021/09/16 01:32:04;;;;;;;5.50;3.30;;;;;;;;;;5035319;28;20541;-67
2021/09/16 01:34:31;;;;;;;5.53;4.10;;;;;;;;;;5036594;28;20837;-67
2021/09/16 01:36:57;;;;;;;8.37;4.10;;;;;;;;;;5035228;28;20406;-68
2021/09/16 01:39:23;;;;;;;5.87;3.30;;;;;;;;;;5036108;28;20548;-67
2021/09/16 01:41:51;;;;;;;6.80;3.70;;;;;;;;;;5036166;28;20459;-67
2021/09/16 01:44:17;;;;;;;6.60;4.13;;;;;;;;;;5035585;28;20427;-68
2021/09/16 01:46:43;;;;;;;4.40;3.67;;;;;;;;;;5036215;28;20776;-67
2021/09/16 01:49:10;;;;;;;5.87;3.47;;;;;;;;;;5035199;28;20418;-68
2021/09/16 01:51:36;;;;;;;5.23;3.70;;;;;;;;;;5035549;28;20399;-67
2021/09/16 01:54:03;;;;;;;5.73;4.10;;;;;;;;;;5027528;28;20437;-68
2021/09/16 01:56:29;;;;;;;6.83;4.10;;;;;;;;;;5026906;28;20418;-67
2021/09/16 01:58:55;;;;;;;4.67;4.17;;;;;;;;;;5033787;28;20466;-67
2021/09/16 02:01:21;;;;;;;7.93;4.40;;;;;;;;;;5035844;28;20879;-68
2021/09/16 02:03:47;;;;;;;5.60;3.27;;;;;;;;;;5034234;28;20434;-67
2021/09/16 02:06:14;;;;;;;7.20;4.20;;;;;;;;;;5036148;28;20860;-67
2021/09/16 02:08:40;;;;;;;5.97;4.27;;;;;;;;;;5031515;28;20513;-67
2021/09/16 02:11:06;;;;;;;7.13;4.60;;;;;;;;;;5032807;28;20437;-67
2021/09/16 02:13:32;;;;;;;8.27;4.73;;;;;;;;;;5034742;28;20835;-67
2021/09/16 02:15:58;;;;;;;6.40;5.27;;;;;;;;;;5035806;28;20407;-67
2021/09/16 02:18:24;;;;;;;6.93;4.20;;;;;;;;;;5016711;28;20454;-67
2021/09/16 02:20:50;;;;;;;10.57;4.03;;;;;;;;;;5035304;28;20407;-67
2021/09/16 02:23:16;;;;;;;9.13;4.10;;;;;;;;;;5034049;28;20839;-67
2021/09/16 02:25:42;;;;;;;7.03;4.20;;;;;;;;;;5026271;28;20424;-67
2021/09/16 02:28:09;;;;;;;6.20;4.00;;;;;;;;;;5016351;28;20433;-67
2021/09/16 02:30:35;;;;;;;5.70;4.20;;;;;;;;;;5034554;28;20399;-67
2021/09/16 02:33:04;;;;;;;4.50;3.70;;;;;;;;;;5033464;28;20422;-67
2021/09/16 02:35:30;;;;;;;6.57;3.70;;;;;;;;;;5035215;28;20411;-68
2021/09/16 02:37:56;;;;;;;5.20;3.87;;;;;;;;;;5034152;28;20407;-68
2021/09/16 02:40:22;;;;;;;4.67;3.37;;;;;;;;;;5014666;28;20443;-68
2021/09/16 02:42:48;;;;;;;9.00;3.67;;;;;;;;;;5015072;28;20424;-68
2021/09/16 02:45:14;;;;;;;5.50;3.43;;;;;;;;;;5033947;28;20490;-68
2021/09/16 02:47:40;;;;;;;5.90;3.93;;;;;;;;;;5034463;28;20399;-68
2021/09/16 02:50:07;;;;;;;5.23;4.17;;;;;;;;;;5033406;28;20981;-68
2021/09/16 02:52:33;;;;;;;5.60;2.97;;;;;;;;;;5034645;28;20455;-68
2021/09/16 02:54:59;;;;;;;4.20;3.43;;;;;;;;;;5033490;28;20431;-68
2021/09/16 02:57:25;;;;;;;5.40;3.80;;;;;;;;;;5031911;28;20984;-68
2021/09/16 02:59:51;;;;;;;4.93;3.70;;;;;;;;;;5033102;28;20459;-68
2021/09/16 03:02:17;;;;;;;5.20;3.70;;;;;;;;;;5034690;28;20781;-68
2021/09/16 03:04:43;;;;;;;4.20;3.37;;;;;;;;;;5033384;28;20430;-68
2021/09/16 03:07:09;;;;;;;5.20;3.70;;;;;;;;;;5034356;28;20437;-67
2021/09/16 03:09:35;;;;;;;5.67;3.00;;;;;;;;;;5033235;28;20479;-67
2021/09/16 03:12:01;;;;;;;5.20;3.70;;;;;;;;;;5034040;28;20478;-67
2021/09/16 03:14:27;;;;;;;6.30;4.23;;;;;;;;;;5022344;28;20440;-67
2021/09/16 03:16:53;;;;;;;7.53;4.40;;;;;;;;;;5014640;28;20411;-68
2021/09/16 03:19:19;;;;;;;6.20;4.07;;;;;;;;;;5023464;28;20484;-68
2021/09/16 03:21:45;;;;;;;6.53;4.00;;;;;;;;;;5034222;28;20842;-67
2021/09/16 03:24:11;;;;;;;8.30;4.30;;;;;;;;;;5030635;28;20764;-68
2021/09/16 03:26:37;;;;;;;8.47;3.90;;;;;;;;;;5020503;28;20783;-68
2021/09/16 03:29:03;;;;;;;7.53;4.03;;;;;;;;;;5021570;28;20864;-67
2021/09/16 03:31:29;;;;;;;4.90;4.07;;;;;;;;;;5030494;28;20893;-68
2021/09/16 03:33:55;;;;;;;6.27;3.80;;;;;;;;;;5032977;28;20423;-67
2021/09/16 03:36:21;;;;;;;6.27;4.60;;;;;;;;;;5033901;28;20399;-67
2021/09/16 03:38:47;;;;;;;5.57;4.57;;;;;;;;;;5033097;28;20545;-67
2021/09/16 03:41:13;;;;;;;4.87;4.30;;;;;;;;;;5034028;28;20399;-67
2021/09/16 03:43:39;;;;;;;5.90;4.00;;;;;;;;;;5032605;28;20538;-66
2021/09/16 03:46:05;;;;;;;5.30;3.83;;;;;;;;;;5033758;28;20403;-68
2021/09/16 03:48:31;;;;;;;4.83;4.27;;;;;;;;;;5032771;28;20438;-67
2021/09/16 03:50:57;;;;;;;6.10;4.73;;;;;;;;;;5034078;28;20406;-68
2021/09/16 03:53:23;;;;;;;10.13;4.37;;;;;;;;;;5032171;28;20545;-68
2021/09/16 03:55:49;;;;;;;7.07;4.87;;;;;;;;;;5030880;28;20485;-68
2021/09/16 03:58:15;;;;;;;6.40;4.60;;;;;;;;;;5032243;28;20426;-68
2021/09/16 04:00:41;;;;;;;7.17;4.80;;;;;;;;;;5014341;28;20415;-67
2021/09/16 04:03:11;;;;;;;6.43;4.30;;;;;;;;;;5015316;28;20459;-68
2021/09/16 04:05:40;;;;;;;5.83;4.00;;;;;;;;;;5018319;28;20419;-68
2021/09/16 04:08:06;;;;;;;8.47;6.10;;;;;;;;;;5015250;28;20912;-68
2021/09/16 04:10:32;;;;;;;13.77;6.13;;;;;;;;;;5032448;28;20465;-68
2021/09/16 04:12:58;;;;;;;9.20;5.03;;;;;;;;;;5033328;28;20845;-68
2021/09/16 04:15:24;;;;;;;8.23;4.70;;;;;;;;;;5032595;28;20422;-67
2021/09/16 04:17:50;;;;;;;6.93;4.43;;;;;;;;;;5033730;28;20395;-68
2021/09/16 04:20:17;;;;;;;4.90;3.90;;;;;;;;;;5032582;28;20462;-68
2021/09/16 04:22:43;;;;;;;7.83;4.07;;;;;;;;;;5033897;28;20572;-68
2021/09/16 04:25:09;;;;;;;5.43;4.00;;;;;;;;;;5032638;28;20850;-68
2021/09/16 04:27:35;;;;;;;8.50;4.57;;;;;;;;;;5031583;28;20430;-68
2021/09/16 04:30:01;;;;;;;7.20;5.00;;;;;;;;;;5033610;28;20449;-68
2021/09/16 04:32:27;;;;;;;5.50;4.20;;;;;;;;;;5032758;28;20891;-68
2021/09/16 04:34:53;;;;;;;6.30;4.63;;;;;;;;;;5033622;28;20555;-68
2021/09/16 04:37:19;;;;;;;6.30;5.00;;;;;;;;;;5031929;28;20430;-67
2021/09/16 04:39:45;;;;;;;7.40;4.57;;;;;;;;;;5032956;28;20456;-67
2021/09/16 04:42:11;;;;;;;7.13;4.80;;;;;;;;;;5023324;28;20961;-67
2021/09/16 04:44:37;;;;;;;6.70;4.40;;;;;;;;;;5013565;28;20458;-68
2021/09/16 04:47:03;;;;;;;7.80;4.13;;;;;;;;;;5013769;28;20939;-68
2021/09/16 04:49:30;;;;;;;7.37;4.53;;;;;;;;;;5013499;28;20783;-68
2021/09/16 04:51:56;;;;;;;6.43;4.20;;;;;;;;;;5021115;28;20501;-68
2021/09/16 04:54:22;;;;;;;11.73;5.43;;;;;;;;;;5036621;28;20407;-68
2021/09/16 04:56:48;;;;;;;11.10;5.83;;;;;;;;;;5018688;28;20945;-68
2021/09/16 04:59:14;;;;;;;11.73;7.30;;;;;;;;;;5035734;28;20539;-68
2021/09/16 05:01:43;;;;;;;9.43;5.53;;;;;;;;;;5044727;23;20545;-84
2021/09/16 05:04:09;;;;;;;7.73;5.20;;;;;;;;;;5018563;28;20440;-85
2021/09/16 05:06:35;;;;;;;6.80;5.10;;;;;;;;;;5006161;28;20510;-83
2021/09/16 05:09:01;;;;;;;9.07;5.13;;;;;;;;;;5019097;28;20549;-84
2021/09/16 05:11:27;;;;;;;5.97;5.37;;;;;;;;;;5039105;28;20394;-83
2021/09/16 05:13:53;;;;;;;7.13;4.40;;;;;;;;;;5038069;28;20431;-85
2021/09/16 05:16:20;;;;;;;7.23;3.93;;;;;;;;;;5039064;28;20521;-85
2021/09/16 05:18:46;;;;;;;7.00;4.17;;;;;;;;;;5039414;28;21029;-84
2021/09/16 05:21:12;;;;;;;6.53;4.20;;;;;;;;;;5023152;28;20472;-85
2021/09/16 05:23:38;;;;;;;5.57;3.97;;;;;;;;;;5019914;28;20809;-84
2021/09/16 05:26:04;;;;;;;6.23;4.50;;;;;;;;;;5038182;28;20426;-85
2021/09/16 05:28:30;;;;;;;7.30;5.03;;;;;;;;;;5037909;28;20482;-85
2021/09/16 05:30:56;;;;;;;6.97;5.00;;;;;;;;;;5020446;28;20418;-85
2021/09/16 05:33:22;;;;;;;5.20;4.20;;;;;;;;;;5037285;28;20440;-85
2021/09/16 05:35:48;;;;;;;6.57;4.40;;;;;;;;;;5039345;28;20482;-84
2021/09/16 05:38:14;;;;;;;5.27;4.10;;;;;;;;;;5038749;28;20431;-85
2021/09/16 05:40:40;;;;;;;7.20;5.00;;;;;;;;;;5039103;28;20456;-85
2021/09/16 05:43:06;;;;;;;10.53;4.80;;;;;;;;;;5038401;28;20496;-85
2021/09/16 05:45:34;;;;;;;9.70;5.10;;;;;;;;;;5038803;28;20399;-84
2021/09/16 05:48:00;;;;;;;11.43;4.70;;;;;;;;;;5038489;28;20442;-85
2021/09/16 05:50:26;;;;;;;7.60;5.70;;;;;;;;;;5039612;28;20458;-85
2021/09/16 05:52:52;;;;;;;7.87;4.50;;;;;;;;;;5037820;28;20433;-85
2021/09/16 05:55:18;;;;;;;5.23;4.30;;;;;;;;;;5038935;28;20914;-85
2021/09/16 05:57:44;;;;;;;9.73;4.47;;;;;;;;;;5033140;28;20463;-84
2021/09/16 06:00:11;;;;;;;6.30;4.70;;;;;;;;;;5019022;28;20952;-85
2021/09/16 06:02:37;;;;;;;10.37;4.30;;;;;;;;;;5027216;28;20816;-85
2021/09/16 06:05:03;;;;;;;6.00;4.33;;;;;;;;;;5038199;28;20403;-85
2021/09/16 06:07:29;;;;;;;7.13;4.70;;;;;;;;;;5037192;28;20501;-85
2021/09/16 06:09:55;;;;;;;7.00;4.67;;;;;;;;;;5037566;28;20399;-85
2021/09/16 06:12:21;;;;;;;6.77;4.37;;;;;;;;;;5037372;28;20414;-85
2021/09/16 06:14:47;;;;;;;8.70;4.67;;;;;;;;;;5037646;28;20403;-85
2021/09/16 06:17:13;;;;;;;6.97;3.83;;;;;;;;;;5036049;28;20438;-83
2021/09/16 06:19:39;;;;;;;4.87;4.17;;;;;;;;;;5032844;28;20469;-85
2021/09/16 06:22:06;;;;;;;8.23;5.10;;;;;;;;;;5017386;28;20912;-84
2021/09/16 06:24:32;;;;;;;8.07;4.93;;;;;;;;;;5035267;28;20426;-85
2021/09/16 06:26:58;;;;;;;6.37;4.00;;;;;;;;;;5037440;28;20426;-83
2021/09/16 06:29:24;;;;;;;8.23;4.43;;;;;;;;;;5019183;28;20441;-85
2021/09/16 06:31:50;;;;;;;6.30;4.63;;;;;;;;;;5030593;28;20462;-85
2021/09/16 06:34:17;;;;;;;5.07;3.30;;;;;;;;;;5018171;28;20801;-84
2021/09/16 06:36:43;;;;;;;5.17;3.93;;;;;;;;;;5017918;28;20452;-85
2021/09/16 06:39:09;;;;;;;5.30;4.10;;;;;;;;;;5035988;28;20465;-85
2021/09/16 06:41:35;;;;;;;5.47;4.47;;;;;;;;;;5019502;28;20407;-83
2021/09/16 06:44:01;;;;;;;7.70;4.70;;;;;;;;;;5028983;28;20430;-84
2021/09/16 06:46:27;;;;;;;8.27;4.33;;;;;;;;;;5035184;28;20426;-84
2021/09/16 06:48:53;;;;;;;6.87;4.17;;;;;;;;;;5032014;28;20434;-81
2021/09/16 06:51:19;;;;;;;8.30;4.83;;;;;;;;;;5024374;28;20434;-83
2021/09/16 06:53:45;;;;;;;5.57;3.70;;;;;;;;;;5034556;28;20422;-85
2021/09/16 06:56:11;;;;;;;9.30;3.40;;;;;;;;;;5036578;28;20438;-83
2021/09/16 06:58:37;;;;;;;4.40;3.40;;;;;;;;;;5032416;28;20442;-82
2021/09/16 07:01:03;;;;;;;5.90;4.27;;;;;;;;;;5021503;28;20433;-80
2021/09/16 07:03:29;;;;;;;9.33;4.53;;;;;;;;;;5010788;28;20434;-83
2021/09/16 07:05:56;;;;;;;4.97;3.70;;;;;;;;;;5033548;28;20425;-82
2021/09/16 07:08:22;;;;;;;8.80;5.90;;;;;;;;;;5026769;28;20431;-85
2021/09/16 07:10:48;;;;;;;7.23;4.70;;;;;;;;;;5034258;28;20431;-85
2021/09/16 07:13:14;;;;;;;5.07;3.67;;;;;;;;;;5023794;28;20473;-84
2021/09/16 07:15:40;;;;;;;8.77;4.43;;;;;;;;;;5026813;28;20430;-83
2021/09/16 07:18:06;;;;;;;7.23;4.53;;;;;;;;;;5034347;28;20438;-83
2021/09/16 07:20:32;;;;;;;6.07;4.30;;;;;;;;;;5032820;28;20454;-83
2021/09/16 07:22:58;;;;;;;8.40;5.63;;;;;;;;;;5031340;28;20508;-82
2021/09/16 07:25:24;;;;;;;7.67;4.60;;;;;;;;;;5023401;28;20435;-81
2021/09/16 07:27:50;;;;;;;7.73;3.30;;;;;;;;;;5032516;28;20485;-82
2021/09/16 07:30:16;;;;;;;5.57;3.87;;;;;;;;;;5049173;28;20749;-81
2021/09/16 07:32:43;;;;;;;8.33;3.63;;;;;;;;;;5029988;28;20466;-82
2021/09/16 07:35:09;;;;;;;7.60;3.03;;;;;;;;;;5024106;28;20458;-83
2021/09/16 07:37:35;;;;;;;4.53;3.20;;;;;;;;;;5018675;28;20473;-84
2021/09/16 07:40:01;;;;;;;5.30;3.80;;;;;;;;;;5021906;28;20469;-82
2021/09/16 07:42:28;;;;;;;4.67;3.07;;;;;;;;;;5022893;28;20792;-82
2021/09/16 07:44:54;;;;;;;6.87;3.20;;;;;;;;;;5022531;28;20423;-84
2021/09/16 07:47:20;;;;;;;5.40;3.50;;;;;;;;;;5024865;28;20500;-82
2021/09/16 07:49:47;;;;;;;5.00;3.30;;;;;;;;;;5020917;28;20439;-83
2021/09/16 07:52:13;;;;;;;5.57;3.17;;;;;;;;;;5022902;28;20435;-83
2021/09/16 07:54:40;;;;;;;5.30;3.10;;;;;;;;;;5023319;28;20947;-82
2021/09/16 07:57:06;;;;;;;5.07;3.67;;;;;;;;;;5009591;28;20450;-81
2021/09/16 07:59:32;;;;;;;3.90;3.30;;;;;;;;;;5025396;28;20545;-84
2021/09/16 08:01:58;;;;;;;4.17;3.00;;;;;;;;;;5021821;28;20943;-82
2021/09/16 08:04:24;;;;;;;5.73;3.37;;;;;;;;;;5022092;28;20422;-83
2021/09/16 08:06:50;;;;;;;7.70;4.20;;;;;;;;;;5023127;28;20464;-82
2021/09/16 08:09:17;;;;;;;6.17;4.20;;;;;;;;;;5023226;28;20435;-84
2021/09/16 08:11:43;;;;;;;5.87;3.80;;;;;;;;;;5004177;28;20422;-82
2021/09/16 08:14:09;;;;;;;4.97;4.00;;;;;;;;;;5029855;28;20437;-82
2021/09/16 08:16:36;;;;;;;6.23;3.63;;;;;;;;;;5023845;28;20457;-81
2021/09/16 08:19:03;;;;;;;4.33;3.90;;;;;;;;;;5019102;28;20857;-81
2021/09/16 08:21:29;;;;;;;7.80;4.60;;;;;;;;;;5020148;28;20553;-80
2021/09/16 08:23:55;;;;;;;8.60;3.90;;;;;;;;;;5022254;28;20592;-82
2021/09/16 08:26:22;;;;;;;5.70;3.60;;;;;;;;;;5020432;28;20457;-80
2021/09/16 08:28:48;;;;;;;6.30;3.60;;;;;;;;;;5024131;28;20431;-79
2021/09/16 08:31:14;;;;;;;7.00;4.60;;;;;;;;;;5026592;28;20501;-81
2021/09/16 08:33:41;;;;;;;12.87;4.67;;;;;;;;;;5007236;28;20439;-80
2021/09/16 08:36:07;;;;;;;5.63;3.60;;;;;;;;;;5025281;28;20453;-81
2021/09/16 08:38:33;;;;;;;9.10;4.00;;;;;;;;;;5026961;28;21034;-82
2021/09/16 08:40:59;;;;;;;6.83;4.17;;;;;;;;;;5015231;28;20426;-80
2021/09/16 08:43:30;;;;;;;7.13;3.83;;;;;;;;;;5017586;28;20445;-81
2021/09/16 08:45:56;;;;;;;7.07;4.47;;;;;;;;;;5028224;28;20953;-82
2021/09/16 08:48:22;;;;;;;6.80;4.00;;;;;;;;;;5027149;28;20435;-82
2021/09/16 08:50:48;;;;;;;6.90;3.77;;;;;;;;;;5010071;28;20552;-84
2021/09/16 08:53:17;;;;;;;7.57;3.80;;;;;;;;;;5026881;28;20438;-85
2021/09/16 08:55:45;;;;;;;5.60;3.60;;;;;;;;;;5027493;28;20449;-84
2021/09/16 08:58:12;;;;;;;8.27;4.60;;;;;;;;;;5025203;28;20441;-81
2021/09/16 09:00:38;;;;;;;4.40;3.57;;;;;;;;;;5031871;28;20478;-82
2021/09/16 09:03:04;;;;;;;6.37;4.10;;;;;;;;;;5028741;28;20446;-83
2021/09/16 09:05:31;;;;;;;6.33;3.60;;;;;;;;;;5031866;28;20469;-81
2021/09/16 09:07:59;;;;;;;7.87;4.10;;;;;;;;;;5022026;28;20451;-82
2021/09/16 09:10:39;;;;;;;6.67;4.33;;;;;;;;;;5022438;28;20430;-81
2021/09/16 09:13:07;;;;;;;6.13;3.77;;;;;;;;;;5023192;28;20439;-81
2021/09/16 09:15:34;;;;;;;14.70;3.30;;;;;;;;;;5028390;28;20434;-80
2021/09/16 09:18:05;;;;;;;4.80;3.50;;;;;;;;;;5019396;28;20481;-83
2021/09/16 09:20:32;;;;;;;5.83;3.47;;;;;;;;;;5025201;28;20466;-82
2021/09/16 09:22:58;;;;;;;5.80;3.60;;;;;;;;;;5028019;28;20438;-81
2021/09/16 09:25:25;;;;;;;3.90;3.07;;;;;;;;;;5025029;28;21020;-81
2021/09/16 09:27:55;;;;;;;7.43;3.10;;;;;;;;;;5026480;28;20442;-81
2021/09/16 09:30:30;;;;;;;6.27;3.40;;;;;;;;;;5031876;28;20434;-82
2021/09/16 09:32:58;;;;;;;4.70;3.30;;;;;;;;;;5029194;28;20434;-81
2021/09/16 09:35:25;;;;;;;7.10;3.63;;;;;;;;;;5028969;28;20434;-84
2021/09/16 09:37:51;;;;;;;5.37;2.90;;;;;;;;;;5029250;28;20525;-83
2021/09/16 09:40:25;;;;;;;4.93;3.70;;;;;;;;;;5028434;28;20779;-83
2021/09/16 09:42:51;;;;;;;4.47;3.03;;;;;;;;;;5024568;28;20498;-81
2021/09/16 09:45:17;;;;;;;4.83;3.13;;;;;;;;;;5036552;28;20430;-83
2021/09/16 09:47:49;;;;;;;5.23;3.40;;;;;;;;;;5017571;28;20431;-80
2021/09/16 09:50:19;;;;;;;7.97;4.20;;;;;;;;;;5027585;28;20430;-81
2021/09/16 09:52:45;;;;;;;8.07;3.90;;;;;;;;;;5049295;28;20484;-81
2021/09/16 09:55:12;;;;;;;9.70;4.10;;;;;;;;;;5047874;28;20434;-81
2021/09/16 09:57:39;;;;;;;4.67;3.80;;;;;;;;;;5050047;28;20477;-81
2021/09/16 10:00:12;;;;;;;6.87;4.20;;;;;;;;;;5042487;28;20548;-81
2021/09/16 10:02:55;;;;;;;5.93;4.30;;;;;;;;;;5043004;28;20427;-82
2021/09/16 10:05:26;;;;;;;7.53;6.47;;;;;;;;;;5028428;28;20435;-84
2021/09/16 10:07:53;;;;;;;7.87;5.27;;;;;;;;;;5051123;28;20577;-81
2021/09/16 10:10:20;;;;;;;5.30;3.80;;;;;;;;;;5046409;28;20430;-84
2021/09/16 10:12:47;;;;;;;6.50;3.90;;;;;;;;;;5036584;28;20449;-83
2021/09/16 10:15:15;;;;;;;6.43;3.40;;;;;;;;;;5041285;28;20447;-83
2021/09/16 10:17:41;;;;;;;6.60;4.10;;;;;;;;;;5041665;28;20446;-84
2021/09/16 10:20:08;;;;;;;7.40;4.93;;;;;;;;;;5025628;28;20490;-84
2021/09/16 10:22:35;;;;;;;7.47;4.10;;;;;;;;;;5019667;28;20950;-84
2021/09/16 10:25:01;;;;;;;6.00;3.97;;;;;;;;;;5018783;28;20422;-84
2021/09/16 10:27:28;;;;;;;6.00;4.10;;;;;;;;;;5034851;28;20486;-83
2021/09/16 10:29:54;;;;;;;9.00;4.60;;;;;;;;;;5023681;28;20442;-83
2021/09/16 10:32:20;;;;;;;6.10;4.50;;;;;;;;;;5043083;28;20422;-83
2021/09/16 10:34:56;;;;;;;6.33;3.90;;;;;;;;;;5020564;28;20484;-81
2021/09/16 10:37:23;;;;;;;7.20;3.60;;;;;;;;;;5038416;28;20794;-83
2021/09/16 10:39:50;;;;;;;6.03;4.10;;;;;;;;;;5037389;28;20458;-84
2021/09/16 10:42:17;;;;;;;7.27;3.70;;;;;;;;;;5041314;28;20426;-84
2021/09/16 10:44:43;;;;;;;6.60;3.80;;;;;;;;;;5035122;28;20461;-84
2021/09/16 10:47:20;;;;;;;7.33;3.63;;;;;;;;;;5039799;28;20453;-84
2021/09/16 10:49:46;;;;;;;5.77;3.70;;;;;;;;;;5037084;28;20464;-84
2021/09/16 10:52:12;;;;;;;6.80;4.67;;;;;;;;;;5026277;28;20438;-83
2021/09/16 10:54:38;;;;;;;6.43;4.10;;;;;;;;;;5027786;28;20514;-80
2021/09/16 10:57:04;;;;;;;5.37;3.00;;;;;;;;;;5035729;28;20966;-83
2021/09/16 10:59:52;;;;;;;6.20;4.30;;;;;;;;;;5030821;28;20544;-84
2021/09/16 11:02:22;;;;;;;8.73;4.30;;;;;;;;;;5014774;28;20462;-85
2021/09/16 11:07:32;;;;;;;5.77;4.00;;;;;;;;;;5035824;28;20445;-84
2021/09/16 11:10:16;;;;;;;6.20;4.10;;;;;;;;;;5038231;28;20843;-83
2021/09/16 11:12:43;;;;;;;5.60;3.60;;;;;;;;;;5035577;28;20478;-83
2021/09/16 11:15:10;;;;;;;7.93;4.73;;;;;;;;;;5036534;28;20458;-82
2021/09/16 11:17:36;;;;;;;8.60;4.43;;;;;;;;;;5038982;28;20450;-84
2021/09/16 11:20:03;;;;;;;8.03;4.40;;;;;;;;;;5019506;28;20455;-83
2021/09/16 11:22:29;;;;;;;7.10;4.50;;;;;;;;;;5019690;28;20422;-84
2021/09/16 11:24:57;;;;;;;9.17;4.30;;;;;;;;;;5032192;28;20423;-84
2021/09/16 11:27:25;;;;;;;6.80;4.77;;;;;;;;;;5033630;28;20796;-84
2021/09/16 11:29:51;;;;;;;5.70;3.83;;;;;;;;;;5033866;28;20430;-83
2021/09/16 11:32:17;;;;;;;8.30;4.90;;;;;;;;;;5034023;28;20823;-81
2021/09/16 11:34:54;;;;;;;6.10;4.30;;;;;;;;;;5029831;28;20441;-84
2021/09/16 11:37:22;;;;;;;6.00;4.13;;;;;;;;;;5031236;28;20493;-83
2021/09/16 11:39:58;;;;;;;5.87;4.17;;;;;;;;;;5032935;28;20465;-82
2021/09/16 11:42:24;;;;;;;5.40;3.40;;;;;;;;;;5040087;28;20440;-84
2021/09/16 11:44:54;;;;;;;5.17;3.67;;;;;;;;;;5030071;28;20474;-85
2021/09/16 11:47:20;;;;;;;6.23;4.27;;;;;;;;;;5038441;28;20541;-84
2021/09/16 11:49:46;;;;;;;6.23;3.90;;;;;;;;;;5038162;28;20454;-85
2021/09/16 11:52:18;;;;;;;7.47;4.00;;;;;;;;;;5034581;28;20903;-84
2021/09/16 11:55:01;;;;;;;5.50;3.70;;;;;;;;;;5038933;28;20411;-84
2021/09/16 11:57:27;;;;;;;6.37;3.80;;;;;;;;;;5037157;28;20461;-85
2021/09/16 11:59:53;;;;;;;8.30;4.27;;;;;;;;;;5039205;28;20470;-83
2021/09/16 12:05:36;;;;;;;5.37;3.50;;;;;;;;;;5029914;28;20444;-83
2021/09/16 12:08:03;;;;;;;4.97;3.27;;;;;;;;;;5027324;28;20449;-83
2021/09/16 12:10:49;;;;;;;5.50;3.50;;;;;;;;;;5033102;28;20426;-84
2021/09/16 12:13:17;;;;;;;4.13;3.60;;;;;;;;;;5032451;28;20445;-84
2021/09/16 12:15:44;;;;;;;7.77;3.97;;;;;;;;;;5041007;28;20429;-84
2021/09/16 12:18:10;;;;;;;6.90;3.80;;;;;;;;;;5037420;28;20433;-84
2021/09/16 12:20:37;;;;;;;7.20;3.97;;;;;;;;;;5031696;28;20865;-82
2021/09/16 12:23:04;;;;;;;7.00;4.23;;;;;;;;;;5030257;28;20427;-81
2021/09/16 12:25:30;;;;;;;6.73;3.63;;;;;;;;;;5034611;28;20845;-83
2021/09/16 12:28:06;;;;;;;4.43;3.03;;;;;;;;;;5037106;28;20454;-83
2021/09/16 12:30:36;;;;;;;4.27;3.20;;;;;;;;;;5045849;28;20406;-81
2021/09/16 12:33:03;;;;;;;8.80;3.73;;;;;;;;;;5029158;28;20448;-82
2021/09/16 12:35:29;;;;;;;4.50;3.17;;;;;;;;;;5036833;28;20438;-81
2021/09/16 12:38:06;;;;;;;9.10;4.20;;;;;;;;;;5021955;28;20500;-82
2021/09/16 12:40:32;;;;;;;7.97;3.83;;;;;;;;;;5033402;28;20465;-83
2021/09/16 12:43:05;;;;;;;6.60;4.27;;;;;;;;;;5016847;28;20426;-85
2021/09/16 12:45:31;;;;;;;4.40;2.50;;;;;;;;;;5035119;28;20425;-83
2021/09/16 12:47:58;;;;;;;5.30;2.93;;;;;;;;;;5035410;28;20810;-83
2021/09/16 12:50:24;;;;;;;5.30;2.97;;;;;;;;;;5017367;28;20426;-83
2021/09/16 12:52:51;;;;;;;5.37;3.37;;;;;;;;;;5032892;28;20438;-82
2021/09/16 12:55:18;;;;;;;6.77;3.40;;;;;;;;;;5038192;28;20429;-82
2021/09/16 12:57:44;;;;;;;5.17;3.10;;;;;;;;;;5036849;28;20980;-83
2021/09/16 13:00:13;;;;;;;5.43;3.30;;;;;;;;;;5036619;28;20545;-83
2021/09/16 13:02:46;;;;;;;5.73;3.23;;;;;;;;;;5034895;28;20528;-81
2021/09/16 13:05:16;;;;;;;5.00;2.97;;;;;;;;;;5032695;28;20437;-81
2021/09/16 13:07:43;;;;;;;4.97;2.63;;;;;;;;;;5018416;28;20439;-84
2021/09/16 13:10:12;;;;;;;6.17;3.10;;;;;;;;;;5035570;28;20903;-83
2021/09/16 13:12:38;;;;;;;5.67;2.43;;;;;;;;;;5028138;28;20572;-83
2021/09/16 13:15:05;;;;;;;5.17;2.33;;;;;;;;;;5016691;28;20443;-82
2021/09/16 13:17:32;;;;;;;3.23;2.10;;;;;;;;;;5037118;28;20465;-83
2021/09/16 13:19:58;;;;;;;3.00;2.10;;;;;;;;;;5036607;28;20488;-84
2021/09/16 13:22:24;;;;;;;3.30;2.10;;;;;;;;;;5029238;28;20435;-87
2021/09/16 13:24:51;;;;;;;6.03;2.90;;;;;;;;;;5014461;28;20542;-86
2021/09/16 13:27:17;;;;;;;3.97;2.70;;;;;;;;;;5035196;28;20813;-85
2021/09/16 13:29:43;;;;;;;3.53;2.40;;;;;;;;;;5018457;28;20431;-86
2021/09/16 13:32:10;;;;;;;2.60;2.23;;;;;;;;;;5038714;28;20419;-86
2021/09/16 13:34:36;;;;;;;4.67;2.30;;;;;;;;;;5008095;28;20428;-85
2021/09/16 13:37:02;;;;;;;5.63;2.90;;;;;;;;;;5035667;28;20508;-85
2021/09/16 13:39:28;;;;;;;4.17;2.73;;;;;;;;;;5036953;28;20542;-84
2021/09/16 13:41:54;;;;;;;5.53;3.20;;;;;;;;;;5038349;28;20415;-85
2021/09/16 13:44:22;;;;;;;3.60;2.67;;;;;;;;;;5037384;28;20514;-86
2021/09/16 13:46:48;;;;;;;4.33;3.33;;;;;;;;;;5039675;28;20503;-86
2021/09/16 13:49:14;;;;;;;4.57;2.37;;;;;;;;;;5040136;28;20439;-84
2021/09/16 13:51:41;;;;;;;8.13;2.80;;;;;;;;;;5040887;28;20543;-85
2021/09/16 13:54:07;;;;;;;4.00;2.73;;;;;;;;;;5036546;28;20473;-85
2021/09/16 13:56:33;;;;;;;4.87;2.70;;;;;;;;;;5037904;28;20482;-85
2021/09/16 13:58:59;;;;;;;4.60;2.63;;;;;;;;;;5039387;28;20470;-86
2021/09/16 14:01:25;;;;;;;4.07;2.50;;;;;;;;;;5035913;28;20446;-87
2021/09/16 14:03:51;;;;;;;5.50;3.07;;;;;;;;;;5040829;28;20429;-85
2021/09/16 14:06:18;;;;;;;7.10;2.90;;;;;;;;;;5033397;28;21125;-85
2021/09/16 14:08:44;;;;;;;5.57;2.37;;;;;;;;;;5037331;28;20426;-85
2021/09/16 14:11:10;;;;;;;4.43;2.10;;;;;;;;;;5036688;28;20465;-84
2021/09/16 14:13:36;;;;;;;5.77;3.57;;;;;;;;;;5041976;28;20414;-86
2021/09/16 14:16:02;;;;;;;5.60;3.00;;;;;;;;;;5040136;28;20442;-85
2021/09/16 14:18:28;;;;;;;3.70;2.50;;;;;;;;;;5038282;28;20919;-85
2021/09/16 14:20:55;;;;;;;3.23;2.23;;;;;;;;;;5020073;28;20454;-85
2021/09/16 14:23:21;;;;;;;3.77;2.30;;;;;;;;;;5037313;28;20494;-83
2021/09/16 14:25:47;;;;;;;7.33;3.70;;;;;;;;;;5031427;28;20975;-83
2021/09/16 14:28:13;;;;;;;6.17;3.10;;;;;;;;;;5035246;28;20441;-84
2021/09/16 14:30:42;;;;;;;4.90;2.80;;;;;;;;;;5036404;28;20427;-84
2021/09/16 14:33:09;;;;;;;3.07;2.17;;;;;;;;;;5037064;28;20481;-85
2021/09/16 14:35:35;;;;;;;6.13;3.03;;;;;;;;;;5014283;28;20477;-84
2021/09/16 14:38:02;;;;;;;3.87;2.20;;;;;;;;;;5015233;28;20461;-83
2021/09/16 14:40:28;;;;;;;3.40;2.50;;;;;;;;;;5034699;28;20455;-83
2021/09/16 14:42:54;;;;;;;3.90;2.33;;;;;;;;;;5036173;28;20422;-85
2021/09/16 14:45:20;;;;;;;3.80;2.37;;;;;;;;;;5028853;28;20430;-83
2021/09/16 14:47:46;;;;;;;8.97;2.70;;;;;;;;;;5034605;28;20480;-82